Notice: A non well formed numeric value encountered in /services16/webpages/util/w/t/wt8r5xhl.myutilitysite.com/weatherstationew0157.net/public/weather28/wsFunctions.php on line 312

Warning: A non-numeric value encountered in /services16/webpages/util/w/t/wt8r5xhl.myutilitysite.com/weatherstationew0157.net/public/weather28/wsFunctions.php on line 312

Warning: A non-numeric value encountered in /services16/webpages/util/w/t/wt8r5xhl.myutilitysite.com/weatherstationew0157.net/public/weather28/wsFunctions.php on line 312

Warning: A non-numeric value encountered in /services16/webpages/util/w/t/wt8r5xhl.myutilitysite.com/weatherstationew0157.net/public/weather28/scriptsWL/tagsWL.php on line 167

Warning: A non-numeric value encountered in /services16/webpages/util/w/t/wt8r5xhl.myutilitysite.com/weatherstationew0157.net/public/weather28/scriptsWL/tagsWL.php on line 168

Notice: Undefined index: moonrise in /services16/webpages/util/w/t/wt8r5xhl.myutilitysite.com/weatherstationew0157.net/public/weather28/inc/astronomy.php on line 427

Notice: Undefined index: moonset in /services16/webpages/util/w/t/wt8r5xhl.myutilitysite.com/weatherstationew0157.net/public/weather28/inc/astronomy.php on line 428


Weather Cam 1 more information Weather Cam 1


Visit our other weather sites:

Template documentation
and downloads

And another site


Nearby METAR Reports

   
KMMU - Bloomingdale, New Jersey 07403
Updated: Jan 28 2023 4:45 pm
Mostly Cloudy  
Mostly Cloudy  
   Wind: West 8.1 mph
Wind: West 8.1 mph
Temperature: 50°F
Wind Chill: 46.4°F
Dew Point: 26.6°F
Humidity: 40%
Barometer: 30.26 inHg
Clouds: Mostly Cloudy
Visibility: 10 mi
Cloud details: Mostly Cloudy 5182 m
KMMU 282145Z 26007KT 10SM BKN170 10/M03 A3026
KTEB - Clifton, New Jersey 07014
Updated: Jan 28 2023 4:51 pm
Clear  
Clear  
   Wind: WSW 6.9 mph
Wind: WSW 6.9 mph
Temperature: 48.2°F
Wind Chill: 44.6°F
Dew Point: 26.6°F
Humidity: 43%
Barometer: 30.25 inHg
Clouds: Clear
Visibility: 10 mi
Cloud details: Clear m
KTEB 282151Z 24006KT 10SM CLR 09/M03 A3025 RMK AO2 SLP243 T00891033
KFWN - Franklin, New Jersey 07416
Updated: Jan 28 2023 4:53 pm
Clear  
Clear  
   Wind: SSW 5.8 mph
Wind: SSW 5.8 mph
Temperature: 48.2°F
Wind Chill: 46.4°F
Dew Point: 26.6°F
Humidity: 43%
Barometer: 30.23 inHg
Clouds: Clear
Visibility: 10 mi
Cloud details: Clear m
KFWN 282153Z AUTO 21005KT 10SM CLR 09/M03 A3023 RMK AO2 SLP240 T00891028
KFWN - Hamburg, New Jersey 07419
Updated: Jan 28 2023 4:53 pm
Clear  
Clear  
   Wind: SSW 5.8 mph
Wind: SSW 5.8 mph
Temperature: 48.2°F
Wind Chill: 46.4°F
Dew Point: 26.6°F
Humidity: 43%
Barometer: 30.23 inHg
Clouds: Clear
Visibility: 10 mi
Cloud details: Clear m
KFWN 282153Z AUTO 21005KT 10SM CLR 09/M03 A3023 RMK AO2 SLP240 T00891028
KFWN - Highland Lakes, New Jersey 07422
Updated: Jan 28 2023 4:53 pm
Clear  
Clear  
   Wind: SSW 5.8 mph
Wind: SSW 5.8 mph
Temperature: 48.2°F
Wind Chill: 46.4°F
Dew Point: 26.6°F
Humidity: 43%
Barometer: 30.23 inHg
Clouds: Clear
Visibility: 10 mi
Cloud details: Clear m
KFWN 282153Z AUTO 21005KT 10SM CLR 09/M03 A3023 RMK AO2 SLP240 T00891028
KMMU - Hopatcong,New Jersey 07849
Updated: Jan 28 2023 4:45 pm
Mostly Cloudy  
Mostly Cloudy  
   Wind: West 8.1 mph
Wind: West 8.1 mph
Temperature: 50°F
Wind Chill: 46.4°F
Dew Point: 26.6°F
Humidity: 40%
Barometer: 30.26 inHg
Clouds: Mostly Cloudy
Visibility: 10 mi
Cloud details: Mostly Cloudy 5182 m
KMMU 282145Z 26007KT 10SM BKN170 10/M03 A3026
KFWN - Jefferson, New Jersey 07438
Updated: Jan 28 2023 4:53 pm
Clear  
Clear  
   Wind: SSW 5.8 mph
Wind: SSW 5.8 mph
Temperature: 48.2°F
Wind Chill: 46.4°F
Dew Point: 26.6°F
Humidity: 43%
Barometer: 30.23 inHg
Clouds: Clear
Visibility: 10 mi
Cloud details: Clear m
KFWN 282153Z AUTO 21005KT 10SM CLR 09/M03 A3023 RMK AO2 SLP240 T00891028
KLDJ - Keansburg, New Jersey 07734
Updated: Jan 23 2023 11:55 am
NOT Current
Drizzle, Overcast  
Drizzle, Overcast  
   Wind: WNW 10.4 mph
Wind: WNW 10.4 mph
Temperature: 39.2°F
Wind Chill: 32°F
Dew Point: 35.6°F
Humidity: 87%
Barometer: 29.57 inHg
Clouds: Overcast
Visibility: 5 mi
Cloud details: Partly Cloudy 274 m,
Mostly Cloudy 427 m,
Overcast 579 m
KLDJ 231655Z AUTO 30009KT 5SM DZ SCT009 BKN014 OVC019 04/02 A2957 RMK AO2 T00350020
KMJX - Lavallette, New Jersey 08735
Updated: Jan 20 2023 10:56 am
NOT Current
Mostly Cloudy  
Mostly Cloudy  
   Wind: West 18.4 mph<br />Gust to 18.4 mph
Wind: West 18.4 mph
Gust to 18.4 mph
Temperature: 48.2°F
Wind Chill: 42.8°F
Dew Point: 35.6°F
Humidity: 62%
Barometer: 29.7 inHg
Clouds: Mostly Cloudy
Visibility: 10 mi
Cloud details: Mostly Cloudy 1372 m
KMJX 201556Z AUTO 28016G22KT 10SM BKN045 09/02 A2970 RMK AO2 SLP062 T00940017 TSNO
KTEB - Little Ferry, New Jersey 07643
Updated: Jan 28 2023 4:51 pm
Clear  
Clear  
   Wind: WSW 6.9 mph
Wind: WSW 6.9 mph
Temperature: 48.2°F
Wind Chill: 44.6°F
Dew Point: 26.6°F
Humidity: 43%
Barometer: 30.25 inHg
Clouds: Clear
Visibility: 10 mi
Cloud details: Clear m
KTEB 282151Z 24006KT 10SM CLR 09/M03 A3025 RMK AO2 SLP243 T00891033
KTEB - Spring Valley, NY 10977
Updated: Jan 28 2023 4:51 pm
Clear  
Clear  
   Wind: WSW 6.9 mph
Wind: WSW 6.9 mph
Temperature: 48.2°F
Wind Chill: 44.6°F
Dew Point: 26.6°F
Humidity: 43%
Barometer: 30.25 inHg
Clouds: Clear
Visibility: 10 mi
Cloud details: Clear m
KTEB 282151Z 24006KT 10SM CLR 09/M03 A3025 RMK AO2 SLP243 T00891033
KEWR - Newark, New Jersey 07104
Updated: Jan 28 2023 4:51 pm
Mostly Cloudy  
Mostly Cloudy  
   Wind: WSW 8.1 mph
Wind: WSW 8.1 mph
Temperature: 51.8°F
Dew Point: 24.8°F
Humidity: 35%
Barometer: 30.26 inHg
Clouds: Mostly Cloudy
Visibility: 10 mi
Cloud details: Few Clouds 2134 m,
Mostly Cloudy 5182 m
KEWR 282151Z 25007KT 10SM FEW070 BKN170 11/M04 A3026 RMK AO2 SLP246 T01111044
KMMU - Newfoundland, New Jersey 07435
Updated: Jan 28 2023 4:45 pm
Mostly Cloudy  
Mostly Cloudy  
   Wind: West 8.1 mph
Wind: West 8.1 mph
Temperature: 50°F
Wind Chill: 46.4°F
Dew Point: 26.6°F
Humidity: 40%
Barometer: 30.26 inHg
Clouds: Mostly Cloudy
Visibility: 10 mi
Cloud details: Mostly Cloudy 5182 m
KMMU 282145Z 26007KT 10SM BKN170 10/M03 A3026
KLGA - Yonkers, New York 10710
Updated: Jan 28 2023 4:51 pm
Mostly Cloudy  
Mostly Cloudy  
   Wind: West 8.1 mph
Wind: West 8.1 mph
Temperature: 51.8°F
Dew Point: 21.2°F
Humidity: 30%
Barometer: 30.25 inHg
Clouds: Mostly Cloudy
Visibility: 10 mi
Cloud details: Few Clouds 2286 m,
Mostly Cloudy 4877 m
KLGA 282151Z 26007KT 10SM FEW075 BKN160 11/M06 A3025 RMK AO2 SLP244 T01061061
 

Script developed by  Saratoga-weather.org Adapted for the template by  Weerstation Leuven

You find our weather info also at:

Weather Underground

Citizen Weather Observer Program (CWOP)

Equipment we use:

Weather-station
Davis Vantage Pro2

Weather-program
WeatherLink

Weather-server
DELL Optiplex 7020 Mini-Tower

Provider
Deluxe

Davis Vantage Pro2

WeatherLink

DELL Optiplex 7020 Mini-Tower

Deluxe

Weather Station EW0157 Visitors
Weather Station EW0157 Visitors